createdAt,value
2023-04-08T00:01:38.050Z,75.82
2023-04-08T00:03:39.740Z,76.00
2023-04-08T00:05:41.419Z,76.08
2023-04-08T00:07:42.936Z,76.12
2023-04-08T00:09:44.447Z,75.85
2023-04-08T00:11:46.269Z,75.76
2023-04-08T00:13:47.764Z,75.58
2023-04-08T00:15:49.334Z,76.09
2023-04-08T00:17:50.893Z,75.47
2023-04-08T00:19:52.858Z,76.06
2023-04-08T00:21:54.349Z,75.92
2023-04-08T00:23:55.996Z,76.00
2023-04-08T00:25:57.460Z,75.85
2023-04-08T00:27:58.935Z,75.67
2023-04-08T00:30:00.411Z,75.57
2023-04-08T00:32:01.992Z,75.73
2023-04-08T00:34:03.537Z,75.72
2023-04-08T00:36:05.240Z,75.80
2023-04-08T00:38:08.118Z,76.07
2023-04-08T00:40:09.985Z,75.49
2023-04-08T00:42:11.601Z,75.42
2023-04-08T00:44:13.182Z,75.45
2023-04-08T00:46:14.993Z,75.46
2023-04-08T00:48:16.508Z,75.46
2023-04-08T00:50:18.716Z,75.42
2023-04-08T00:52:20.312Z,75.40
2023-04-08T00:54:21.874Z,75.49
2023-04-08T00:56:24.311Z,75.43
2023-04-08T00:58:25.818Z,75.32
2023-04-08T01:00:30.495Z,75.70
2023-04-08T01:02:59.910Z,75.39
2023-04-08T01:05:04.701Z,75.55
2023-04-08T01:07:38.181Z,75.38
2023-04-08T01:09:44.311Z,75.66
2023-04-08T01:11:49.150Z,75.32
2023-04-08T01:13:53.102Z,76.18
2023-04-08T01:15:55.513Z,76.07
2023-04-08T01:17:59.650Z,76.08
2023-04-08T01:20:04.214Z,75.64
2023-04-08T01:22:15.409Z,76.03
2023-04-08T01:24:29.814Z,76.36
2023-04-08T01:26:31.836Z,75.43
2023-04-08T01:28:35.638Z,75.89
2023-04-08T01:30:39.677Z,76.07
2023-04-08T01:32:44.026Z,75.35
2023-04-08T01:34:45.880Z,75.44
2023-04-08T01:36:49.596Z,75.40
2023-04-08T01:38:51.611Z,75.35
2023-04-08T01:40:55.660Z,75.64
2023-04-08T01:43:00.802Z,75.41
2023-04-08T01:45:03.819Z,75.47
2023-04-08T01:47:05.611Z,75.08
2023-04-08T01:49:08.320Z,75.59
2023-04-08T01:51:11.514Z,75.55
2023-04-08T01:53:13.390Z,75.30
2023-04-08T01:55:15.578Z,75.32
2023-04-08T01:57:24.261Z,75.72
2023-04-08T01:59:31.616Z,75.34
2023-04-08T02:01:35.893Z,75.09
2023-04-08T02:03:38.713Z,75.27
2023-04-08T02:05:40.957Z,75.12
2023-04-08T02:07:42.597Z,75.31
2023-04-08T02:09:44.189Z,75.41
2023-04-08T02:11:45.709Z,75.09
2023-04-08T02:13:47.676Z,75.13
2023-04-08T02:15:57.209Z,75.09
2023-04-08T02:18:13.398Z,75.30
2023-04-08T02:20:21.975Z,75.79
2023-04-08T02:22:36.869Z,75.23
2023-04-08T02:24:39.012Z,75.35
2023-04-08T02:26:43.824Z,75.17
2023-04-08T02:28:48.575Z,75.13
2023-04-08T02:30:52.308Z,75.27
2023-04-08T02:32:54.879Z,75.04
2023-04-08T02:34:58.066Z,75.48
2023-04-08T02:36:59.738Z,74.87
2023-04-08T02:39:01.315Z,75.20
2023-04-08T02:41:02.862Z,74.84
2023-04-08T02:43:04.463Z,74.88
2023-04-08T02:45:06.424Z,75.18
2023-04-08T02:47:07.932Z,75.43
2023-04-08T02:49:09.382Z,75.25
2023-04-08T02:51:10.935Z,75.63
2023-04-08T02:53:12.444Z,75.38
2023-04-08T02:55:13.978Z,74.82
2023-04-08T02:57:17.001Z,75.40
2023-04-08T02:59:18.476Z,74.88
2023-04-08T03:01:20.027Z,75.07
2023-04-08T03:03:27.808Z,75.63
2023-04-08T03:05:29.575Z,75.25
2023-04-08T03:07:32.095Z,75.21
2023-04-08T03:09:33.556Z,75.29
2023-04-08T03:11:35.254Z,75.29
2023-04-08T03:13:37.090Z,75.26
2023-04-08T03:15:38.589Z,74.72
2023-04-08T03:17:40.150Z,75.06
2023-04-08T03:19:41.690Z,74.91
2023-04-08T03:21:43.168Z,75.10
2023-04-08T03:23:45.012Z,75.14
2023-04-08T03:25:46.880Z,74.92
2023-04-08T03:27:48.401Z,75.36
2023-04-08T03:29:50.135Z,75.27
2023-04-08T03:31:51.812Z,75.26
2023-04-08T03:33:53.318Z,75.47
2023-04-08T03:35:55.410Z,75.00
2023-04-08T03:37:56.890Z,74.79
2023-04-08T03:39:58.412Z,74.75
2023-04-08T03:42:00.999Z,74.98
2023-04-08T03:44:02.449Z,75.49
2023-04-08T03:46:03.988Z,75.13
2023-04-08T03:48:06.009Z,75.14
2023-04-08T03:50:07.985Z,74.80
2023-04-08T03:52:09.457Z,75.07
2023-04-08T03:54:11.014Z,75.23
2023-04-08T03:56:12.554Z,75.04
2023-04-08T03:58:14.004Z,74.82
2023-04-08T04:00:15.651Z,75.55
2023-04-08T04:02:17.209Z,74.72
2023-04-08T04:04:19.127Z,75.44
2023-04-08T04:06:21.110Z,75.25
2023-04-08T04:08:22.808Z,75.47
2023-04-08T04:10:24.349Z,75.25
2023-04-08T04:12:26.518Z,75.10
2023-04-08T04:14:28.080Z,75.73
2023-04-08T04:16:32.238Z,75.22
2023-04-08T04:18:34.394Z,75.58
2023-04-08T04:20:36.339Z,75.59
2023-04-08T04:22:37.806Z,75.59
2023-04-08T04:24:39.293Z,75.88
2023-04-08T04:26:42.041Z,75.36
2023-04-08T04:28:43.551Z,75.92
2023-04-08T04:30:45.773Z,75.11
2023-04-08T04:32:47.346Z,75.15
2023-04-08T04:34:48.826Z,75.51
2023-04-08T04:36:50.392Z,75.20
2023-04-08T04:38:52.192Z,74.58
2023-04-08T04:40:54.001Z,75.26
2023-04-08T04:42:55.563Z,74.93
2023-04-08T04:44:57.079Z,75.24
2023-04-08T04:46:58.562Z,75.35
2023-04-08T04:49:00.051Z,74.99
2023-04-08T04:51:05.143Z,75.01
2023-04-08T04:53:06.621Z,75.27
2023-04-08T04:55:08.584Z,75.37
2023-04-08T04:57:11.316Z,75.41
2023-04-08T04:59:12.996Z,75.14
2023-04-08T05:01:14.488Z,75.19
2023-04-08T05:03:16.715Z,75.28
2023-04-08T05:05:18.508Z,75.25
2023-04-08T05:07:20.212Z,75.71
2023-04-08T05:09:21.705Z,75.69
2023-04-08T05:11:23.218Z,75.07
2023-04-08T05:13:24.683Z,75.44
2023-04-08T05:15:26.198Z,75.88
2023-04-08T05:17:27.768Z,75.57
2023-04-08T05:19:29.211Z,75.81
2023-04-08T05:21:30.802Z,75.74
2023-04-08T05:23:32.305Z,75.19
2023-04-08T05:25:33.794Z,75.34
2023-04-08T05:27:35.759Z,75.24
2023-04-08T05:29:37.279Z,75.69
2023-04-08T05:31:38.766Z,75.07
2023-04-08T05:33:40.460Z,75.88
2023-04-08T05:35:41.932Z,75.19
2023-04-08T05:37:43.417Z,75.22
2023-04-08T05:39:44.867Z,75.20
2023-04-08T05:41:46.738Z,75.21
2023-04-08T05:43:48.232Z,75.45
2023-04-08T05:45:49.758Z,75.55
2023-04-08T05:47:51.459Z,75.53
2023-04-08T05:49:53.237Z,75.31
2023-04-08T05:51:54.753Z,76.01
2023-04-08T05:53:56.461Z,75.49
2023-04-08T05:55:57.907Z,75.76
2023-04-08T05:57:59.359Z,75.44
2023-04-08T06:00:00.864Z,75.30
2023-04-08T06:02:02.461Z,75.28
2023-04-08T06:04:04.168Z,75.07
2023-04-08T06:06:11.940Z,74.76
2023-04-08T06:08:13.781Z,74.97
2023-04-08T06:10:15.983Z,75.28
2023-04-08T06:12:17.424Z,75.10
2023-04-08T06:14:20.583Z,75.01
2023-04-08T06:16:22.225Z,74.96
2023-04-08T06:18:23.716Z,75.19
2023-04-08T06:20:25.650Z,75.09
2023-04-08T06:22:27.457Z,75.40
2023-04-08T06:24:32.828Z,75.43
2023-04-08T06:26:34.293Z,75.08
2023-04-08T06:28:35.913Z,75.18
2023-04-08T06:30:37.370Z,75.50
2023-04-08T06:32:38.883Z,75.08
2023-04-08T06:34:41.136Z,75.62
2023-04-08T06:36:42.653Z,75.41
2023-04-08T06:38:44.116Z,75.55
2023-04-08T06:42:47.079Z,76.22
2023-04-08T06:44:48.529Z,76.12
2023-04-08T06:46:50.015Z,76.18
2023-04-08T06:48:51.735Z,75.95
2023-04-08T06:50:53.429Z,75.78
2023-04-08T06:52:55.428Z,75.56
2023-04-08T06:54:57.138Z,75.21
2023-04-08T06:56:58.573Z,75.68
2023-04-08T06:59:00.221Z,75.90
2023-04-08T07:01:03.216Z,75.79
2023-04-08T07:03:04.719Z,76.59
2023-04-08T07:05:07.144Z,76.43
2023-04-08T07:07:09.477Z,76.31
2023-04-08T07:09:11.416Z,76.28
2023-04-08T07:11:12.989Z,76.39
2023-04-08T07:13:14.569Z,76.75
2023-04-08T07:15:16.052Z,76.35
2023-04-08T07:17:17.508Z,76.49
2023-04-08T07:19:18.977Z,76.05
2023-04-08T07:21:20.541Z,75.80
2023-04-08T07:23:22.341Z,76.26
2023-04-08T07:25:23.808Z,75.86
2023-04-08T07:27:25.439Z,76.33
2023-04-08T07:29:27.991Z,76.24
2023-04-08T07:31:29.558Z,76.28
2023-04-08T07:33:31.230Z,75.48
2023-04-08T07:35:34.134Z,75.54
2023-04-08T07:37:35.720Z,75.60
2023-04-08T07:39:37.205Z,75.43
2023-04-08T07:41:38.686Z,75.44
2023-04-08T07:43:40.171Z,75.01
2023-04-08T07:45:41.648Z,74.72
2023-04-08T07:47:44.559Z,74.47
2023-04-08T07:49:47.071Z,73.96
2023-04-08T07:51:48.526Z,73.57
2023-04-08T07:53:49.993Z,73.73
2023-04-08T07:55:51.456Z,73.31
2023-04-08T07:57:53.141Z,74.13
2023-04-08T07:59:54.741Z,73.37
2023-04-08T08:01:56.498Z,72.94
2023-04-08T08:03:58.491Z,72.82
2023-04-08T08:06:00.710Z,72.89
2023-04-08T08:08:02.186Z,72.59
2023-04-08T08:10:03.754Z,72.64
2023-04-08T08:12:05.241Z,72.23
2023-04-08T08:14:07.958Z,72.54
2023-04-08T08:16:11.584Z,72.55
2023-04-08T08:18:13.402Z,72.32
2023-04-08T08:20:14.897Z,72.97
2023-04-08T08:22:16.554Z,72.82
2023-04-08T08:24:18.063Z,72.64
2023-04-08T08:26:19.571Z,72.88
2023-04-08T08:28:21.204Z,71.96
2023-04-08T08:30:22.808Z,72.38
2023-04-08T08:32:24.438Z,72.48
2023-04-08T08:34:26.054Z,71.93
2023-04-08T08:36:27.582Z,71.72
2023-04-08T08:38:29.113Z,72.03
2023-04-08T08:40:30.907Z,71.83
2023-04-08T08:42:34.330Z,72.20
2023-04-08T08:44:36.168Z,71.34
2023-04-08T08:46:44.829Z,72.21
2023-04-08T08:48:46.768Z,71.87
2023-04-08T08:50:48.370Z,71.88
2023-04-08T08:52:53.051Z,71.86
2023-04-08T08:55:01.395Z,71.54
2023-04-08T08:57:03.027Z,70.68
2023-04-08T08:59:04.543Z,70.99
2023-04-08T09:01:31.678Z,70.56
2023-04-08T09:03:33.412Z,70.75
2023-04-08T09:05:56.757Z,70.47
2023-04-08T09:07:58.203Z,71.02
2023-04-08T09:09:59.926Z,71.02
2023-04-08T09:12:04.904Z,70.58
2023-04-08T09:14:17.448Z,72.25
2023-04-08T09:16:19.882Z,72.55
2023-04-08T09:18:23.290Z,71.03
2023-04-08T09:20:24.961Z,70.99
2023-04-08T09:22:26.927Z,70.27
2023-04-08T09:24:30.820Z,69.95
2023-04-08T09:26:32.668Z,70.42
2023-04-08T09:28:34.159Z,70.31
2023-04-08T09:30:35.652Z,70.38
2023-04-08T09:32:59.251Z,71.00
2023-04-08T09:35:00.781Z,70.76
2023-04-08T09:37:02.393Z,71.23
2023-04-08T09:39:03.976Z,70.19
2023-04-08T09:41:08.761Z,71.01
2023-04-08T09:43:13.597Z,70.95
2023-04-08T09:45:17.250Z,70.64
2023-04-08T09:47:23.794Z,70.69
2023-04-08T09:49:25.427Z,70.01
2023-04-08T09:51:33.237Z,70.40
2023-04-08T09:53:38.694Z,70.94
2023-04-08T09:55:43.723Z,70.18
2023-04-08T09:58:08.336Z,71.02
2023-04-08T10:00:13.332Z,70.37
2023-04-08T10:02:18.674Z,70.94
2023-04-08T10:04:23.141Z,70.94
2023-04-08T10:06:31.375Z,71.33
2023-04-08T10:08:33.398Z,71.36
2023-04-08T10:10:37.136Z,71.50
2023-04-08T10:12:39.345Z,71.13
2023-04-08T10:14:40.997Z,71.63
2023-04-08T10:16:42.778Z,71.77
2023-04-08T10:18:44.595Z,71.75
2023-04-08T10:20:47.881Z,71.55
2023-04-08T10:22:49.647Z,71.98
2023-04-08T10:25:16.528Z,71.36
2023-04-08T10:27:41.348Z,72.33
2023-04-08T10:29:42.939Z,71.75
2023-04-08T10:31:50.584Z,72.15
2023-04-08T10:33:53.068Z,71.99
2023-04-08T10:35:59.749Z,72.61
2023-04-08T10:38:02.070Z,72.25
2023-04-08T10:40:05.455Z,72.69
2023-04-08T10:42:08.469Z,72.55
2023-04-08T10:44:16.898Z,72.67
2023-04-08T10:46:18.361Z,72.67
2023-04-08T10:48:24.862Z,73.16
2023-04-08T10:50:27.035Z,73.12
2023-04-08T10:52:28.613Z,73.22
2023-04-08T10:54:30.140Z,73.59
2023-04-08T10:56:31.697Z,73.25
2023-04-08T10:58:33.887Z,73.46
2023-04-08T11:00:40.127Z,73.67
2023-04-08T11:02:41.836Z,73.70
2023-04-08T11:04:44.611Z,74.04
2023-04-08T11:06:47.417Z,72.99
2023-04-08T11:08:49.115Z,72.75
2023-04-08T11:10:51.650Z,73.64
2023-04-08T11:12:56.667Z,72.62
2023-04-08T11:14:58.231Z,73.11
2023-04-08T11:17:01.511Z,73.58
2023-04-08T11:19:05.395Z,72.76
2023-04-08T11:21:13.025Z,73.13
2023-04-08T11:23:14.904Z,72.95
2023-04-08T11:25:16.939Z,72.72
2023-04-08T11:27:18.520Z,72.68
2023-04-08T11:29:21.195Z,72.68
2023-04-08T11:31:24.969Z,72.73
2023-04-08T11:33:29.479Z,72.91
2023-04-08T11:35:33.981Z,72.85
2023-04-08T11:37:40.969Z,72.71
2023-04-08T11:39:43.438Z,72.37
2023-04-08T11:41:44.910Z,72.28
2023-04-08T11:43:57.169Z,72.30
2023-04-08T11:45:58.856Z,71.83
2023-04-08T11:48:00.854Z,72.25
2023-04-08T11:50:04.009Z,72.15
2023-04-08T11:52:05.515Z,72.40
2023-04-08T11:54:07.493Z,71.94
2023-04-08T11:56:19.661Z,71.97
2023-04-08T11:58:21.585Z,71.40
2023-04-08T12:00:24.061Z,71.33
2023-04-08T12:02:26.110Z,70.91
2023-04-08T12:04:28.019Z,70.55
2023-04-08T12:06:29.744Z,71.10
2023-04-08T12:08:31.409Z,70.60
2023-04-08T12:10:33.133Z,70.22
2023-04-08T12:12:34.644Z,70.77
2023-04-08T12:14:36.130Z,70.93
2023-04-08T12:16:37.711Z,71.71
2023-04-08T12:18:39.352Z,71.13
2023-04-08T12:20:41.068Z,71.42
2023-04-08T12:22:42.661Z,70.87
2023-04-08T12:24:44.422Z,71.45
2023-04-08T12:26:45.951Z,71.99
2023-04-08T12:28:47.508Z,71.73
2023-04-08T12:30:48.976Z,72.03
2023-04-08T12:32:50.493Z,71.72
2023-04-08T12:34:52.420Z,72.53
2023-04-08T12:36:55.413Z,72.67
2023-04-08T12:38:57.117Z,72.16
2023-04-08T12:40:58.614Z,72.60
2023-04-08T12:43:00.110Z,72.63
2023-04-08T12:45:01.689Z,72.25
2023-04-08T12:47:03.205Z,72.65
2023-04-08T12:49:05.899Z,72.78
2023-04-08T12:51:10.228Z,73.41
2023-04-08T12:53:11.737Z,72.81
2023-04-08T12:55:13.231Z,73.36
2023-04-08T12:57:14.692Z,72.79
2023-04-08T12:59:16.325Z,72.63
2023-04-08T13:01:17.822Z,72.86
2023-04-08T13:03:19.455Z,72.39
2023-04-08T13:05:29.497Z,72.40
2023-04-08T13:07:41.566Z,72.11
2023-04-08T13:09:44.774Z,72.65
2023-04-08T13:11:47.261Z,72.55
2023-04-08T13:13:49.409Z,72.38
2023-04-08T13:15:50.962Z,72.32
2023-04-08T13:17:52.456Z,72.22
2023-04-08T13:19:53.991Z,72.12
2023-04-08T13:21:55.610Z,72.05
2023-04-08T13:23:57.091Z,71.77
2023-04-08T13:25:58.655Z,72.32
2023-04-08T13:28:00.256Z,72.12
2023-04-08T13:30:01.756Z,71.83
2023-04-08T13:32:03.363Z,71.81
2023-04-08T13:34:04.877Z,72.10
2023-04-08T13:36:06.786Z,72.07
2023-04-08T13:38:08.558Z,72.20
2023-04-08T13:40:10.480Z,72.39
2023-04-08T13:42:11.958Z,72.33
2023-04-08T13:44:13.449Z,72.44
2023-04-08T13:46:14.990Z,72.36
2023-04-08T13:48:16.553Z,72.30
2023-04-08T13:50:18.033Z,72.82
2023-04-08T13:52:20.105Z,73.13
2023-04-08T13:54:21.733Z,72.51
2023-04-08T13:56:23.352Z,72.98
2023-04-08T13:58:26.486Z,73.13
2023-04-08T14:00:28.075Z,72.93
2023-04-08T14:02:29.581Z,73.10
2023-04-08T14:04:31.283Z,72.67
2023-04-08T14:06:32.758Z,72.91
2023-04-08T14:08:34.229Z,73.00
2023-04-08T14:10:36.055Z,73.29
2023-04-08T14:12:37.523Z,72.95
2023-04-08T14:14:39.051Z,72.77
2023-04-08T14:16:41.730Z,72.04
2023-04-08T14:18:43.238Z,72.83
2023-04-08T14:20:44.831Z,72.81
2023-04-08T14:22:46.333Z,72.67
2023-04-08T14:24:47.805Z,72.65
2023-04-08T14:26:49.342Z,72.63
2023-04-08T14:28:51.007Z,72.34
2023-04-08T14:30:52.755Z,72.17
2023-04-08T14:32:54.863Z,72.13
2023-04-08T14:34:56.465Z,72.08
2023-04-08T14:36:57.954Z,72.01
2023-04-08T14:38:59.519Z,71.93
2023-04-08T14:41:01.114Z,72.06
2023-04-08T14:43:02.586Z,71.76
2023-04-08T14:45:04.312Z,72.01
2023-04-08T14:47:05.840Z,72.15
2023-04-08T14:49:07.298Z,72.53
2023-04-08T14:51:08.773Z,72.18
2023-04-08T14:53:10.565Z,72.19
2023-04-08T14:55:12.157Z,72.30
2023-04-08T14:57:13.736Z,72.19
2023-04-08T14:59:15.266Z,72.50
2023-04-08T15:01:16.831Z,72.70
2023-04-08T15:03:18.948Z,72.73
2023-04-08T15:05:20.896Z,72.92
2023-04-08T15:07:22.700Z,72.87
2023-04-08T15:09:24.245Z,73.09
2023-04-08T15:11:25.718Z,73.24
2023-04-08T15:13:27.182Z,73.13
2023-04-08T15:15:28.927Z,73.13
2023-04-08T15:17:30.865Z,73.41
2023-04-08T15:19:32.478Z,73.40
2023-04-08T15:21:34.003Z,73.75
2023-04-08T15:23:35.565Z,73.63
2023-04-08T15:25:37.095Z,73.83
2023-04-08T15:27:38.913Z,73.81
2023-04-08T15:29:40.379Z,73.50
2023-04-08T15:31:42.092Z,73.69
2023-04-08T15:33:46.490Z,73.50
2023-04-08T15:35:49.561Z,73.57
2023-04-08T15:37:51.156Z,73.88
2023-04-08T15:39:53.928Z,74.02
2023-04-08T15:41:55.901Z,73.92
2023-04-08T15:43:57.378Z,73.84
2023-04-08T15:45:58.887Z,73.79
2023-04-08T15:48:00.615Z,73.61
2023-04-08T15:50:02.392Z,73.72
2023-04-08T15:52:04.355Z,74.13
2023-04-08T15:54:06.039Z,73.91
2023-04-08T15:56:13.816Z,73.98
2023-04-08T15:58:16.314Z,74.32
2023-04-08T16:00:17.860Z,74.38
2023-04-08T16:02:19.869Z,74.43
2023-04-08T16:04:23.000Z,74.12
2023-04-08T16:06:24.669Z,73.86
2023-04-08T16:08:26.351Z,74.17
2023-04-08T16:10:27.854Z,74.40
2023-04-08T16:12:29.337Z,74.39
2023-04-08T16:14:30.862Z,74.64
2023-04-08T16:16:33.002Z,74.23
2023-04-08T16:18:34.694Z,74.35
2023-04-08T16:20:39.400Z,74.27
2023-04-08T16:22:40.861Z,74.30
2023-04-08T16:24:42.399Z,74.56
2023-04-08T16:26:44.286Z,74.19
2023-04-08T16:28:45.761Z,74.17
2023-04-08T16:30:47.951Z,74.23
2023-04-08T16:32:49.655Z,74.03
2023-04-08T16:34:51.160Z,74.70
2023-04-08T16:36:52.817Z,74.80
2023-04-08T16:38:54.726Z,74.45
2023-04-08T16:40:59.824Z,74.95
2023-04-08T16:43:02.522Z,74.86
2023-04-08T16:45:04.365Z,74.97
2023-04-08T16:47:05.921Z,75.17
2023-04-08T16:49:07.360Z,74.71
2023-04-08T16:51:08.909Z,74.97
2023-04-08T16:53:10.558Z,74.98
2023-04-08T16:55:13.449Z,75.44
2023-04-08T16:57:16.752Z,75.26
2023-04-08T16:59:18.274Z,75.09
2023-04-08T17:01:20.462Z,75.77
2023-04-08T17:03:22.324Z,75.78
2023-04-08T17:05:24.048Z,75.33
2023-04-08T17:07:26.702Z,75.33
2023-04-08T17:09:29.489Z,75.88
2023-04-08T17:11:31.142Z,75.64
2023-04-08T17:13:32.634Z,75.76
2023-04-08T17:15:36.377Z,76.01
2023-04-08T17:17:38.004Z,76.09
2023-04-08T17:19:39.841Z,75.87
2023-04-08T17:21:42.675Z,75.66
2023-04-08T17:23:44.161Z,76.06
2023-04-08T17:25:46.437Z,76.30
2023-04-08T17:27:47.898Z,76.43
2023-04-08T17:29:49.744Z,76.76
2023-04-08T17:31:51.287Z,76.39
2023-04-08T17:33:52.801Z,76.43
2023-04-08T17:35:55.801Z,76.96
2023-04-08T17:37:57.545Z,76.63
2023-04-08T17:39:59.009Z,76.66
2023-04-08T17:42:02.039Z,76.46
2023-04-08T17:44:04.794Z,77.04
2023-04-08T17:46:06.352Z,76.77
2023-04-08T17:48:09.831Z,77.13
2023-04-08T17:50:11.932Z,76.74
2023-04-08T17:52:13.556Z,77.27
2023-04-08T17:54:16.701Z,77.49
2023-04-08T17:56:18.158Z,77.27
2023-04-08T17:58:19.605Z,77.28
2023-04-08T18:00:21.666Z,77.23
2023-04-08T18:02:23.240Z,77.63
2023-04-08T18:04:24.868Z,78.00
2023-04-08T18:06:26.366Z,77.47
2023-04-08T18:08:27.955Z,77.86
2023-04-08T18:10:29.420Z,77.82
2023-04-08T18:12:31.624Z,77.88
2023-04-08T18:14:33.162Z,77.49
2023-04-08T18:16:34.718Z,78.34
2023-04-08T18:18:36.788Z,77.56
2023-04-08T18:20:38.309Z,77.52
2023-04-08T18:22:39.749Z,78.26
2023-04-08T18:24:41.211Z,78.03
2023-04-08T18:26:43.836Z,77.58
2023-04-08T18:28:46.083Z,78.41
2023-04-08T18:30:51.882Z,78.29
2023-04-08T18:32:53.480Z,78.08
2023-04-08T18:34:54.960Z,77.66
2023-04-08T18:36:56.430Z,78.06
2023-04-08T18:38:58.391Z,78.07
2023-04-08T18:40:59.825Z,77.87
2023-04-08T18:43:04.169Z,78.42
2023-04-08T18:45:06.445Z,78.43
2023-04-08T18:47:08.432Z,77.79
2023-04-08T18:49:09.922Z,78.20
2023-04-08T18:51:12.556Z,77.66
2023-04-08T18:53:14.194Z,78.17
2023-04-08T18:55:15.806Z,77.79
2023-04-08T18:57:17.277Z,78.33
2023-04-08T18:59:19.279Z,78.29
2023-04-08T19:01:20.903Z,78.09
2023-04-08T19:03:22.520Z,78.42
2023-04-08T19:05:24.213Z,77.95
2023-04-08T19:07:26.523Z,78.29
2023-04-08T19:09:27.970Z,78.30
2023-04-08T19:11:29.885Z,78.03
2023-04-08T19:13:31.402Z,78.00
2023-04-08T19:15:32.907Z,77.82
2023-04-08T19:17:34.533Z,78.01
2023-04-08T19:19:36.165Z,77.71
2023-04-08T19:21:37.946Z,78.39
2023-04-08T19:23:41.291Z,77.53
2023-04-08T19:25:42.740Z,78.36
2023-04-08T19:27:46.017Z,78.06
2023-04-08T19:29:47.552Z,78.27
2023-04-08T19:31:49.013Z,78.04
2023-04-08T19:33:50.738Z,78.08
2023-04-08T19:35:52.429Z,77.87
2023-04-08T19:37:53.895Z,78.12
2023-04-08T19:39:55.445Z,78.56
2023-04-08T19:41:57.006Z,78.24
2023-04-08T19:43:58.478Z,78.04
2023-04-08T19:46:00.014Z,77.77
2023-04-08T19:48:01.824Z,78.21
2023-04-08T19:50:03.362Z,78.38
2023-04-08T19:52:06.128Z,79.03
2023-04-08T19:54:07.628Z,78.56
2023-04-08T19:56:09.395Z,78.29
2023-04-08T19:58:11.313Z,77.94
2023-04-08T20:00:14.387Z,78.36
2023-04-08T20:02:16.259Z,78.72
2023-04-08T20:04:18.036Z,79.12
2023-04-08T20:06:20.170Z,78.66
2023-04-08T20:08:21.674Z,78.56
2023-04-08T20:10:23.180Z,78.13
2023-04-08T20:12:24.713Z,78.60
2023-04-08T20:14:26.338Z,78.39
2023-04-08T20:16:28.071Z,78.13
2023-04-08T20:18:29.589Z,78.32
2023-04-08T20:20:31.151Z,78.73
2023-04-08T20:22:32.695Z,78.92
2023-04-08T20:24:34.188Z,78.70
2023-04-08T20:26:35.763Z,78.50
2023-04-08T20:28:37.218Z,78.47
2023-04-08T20:30:38.758Z,78.83
2023-04-08T20:32:40.214Z,78.47
2023-04-08T20:34:41.838Z,79.06
2023-04-08T20:36:43.672Z,78.96
2023-04-08T20:38:45.340Z,78.55
2023-04-08T20:40:46.843Z,78.70
2023-04-08T20:42:48.342Z,78.96
2023-04-08T20:44:49.810Z,78.56
2023-04-08T20:46:51.473Z,78.56
2023-04-08T20:48:53.306Z,79.08
2023-04-08T20:50:55.126Z,78.84
2023-04-08T20:52:56.641Z,79.10
2023-04-08T20:54:58.281Z,78.64
2023-04-08T20:56:59.767Z,79.10
2023-04-08T20:59:01.295Z,79.31
2023-04-08T21:01:02.921Z,78.93
2023-04-08T21:03:04.627Z,79.02
2023-04-08T21:05:06.266Z,79.52
2023-04-08T21:07:07.812Z,79.38
2023-04-08T21:09:11.251Z,78.60
2023-04-08T21:11:13.108Z,79.12
2023-04-08T21:13:14.566Z,78.63
2023-04-08T21:15:16.119Z,78.83
2023-04-08T21:17:17.663Z,79.17
2023-04-08T21:19:19.125Z,78.57
2023-04-08T21:21:20.791Z,78.68
2023-04-08T21:23:22.624Z,78.76
2023-04-08T21:25:24.834Z,78.89
2023-04-08T21:27:28.385Z,78.51
2023-04-08T21:29:29.829Z,79.50
2023-04-08T21:31:31.642Z,78.87
2023-04-08T21:33:33.163Z,79.22
2023-04-08T21:35:35.290Z,78.76
2023-04-08T21:37:36.872Z,79.22
2023-04-08T21:39:38.404Z,79.11
2023-04-08T21:41:39.863Z,79.29
2023-04-08T21:43:41.340Z,79.05
2023-04-08T21:45:42.830Z,79.65
2023-04-08T21:47:44.369Z,79.79
2023-04-08T21:49:46.029Z,79.80
2023-04-08T21:51:47.511Z,80.14
2023-04-08T21:53:50.804Z,79.56
2023-04-08T21:55:52.841Z,79.76
2023-04-08T21:57:54.323Z,79.88
2023-04-08T21:59:55.789Z,79.41
2023-04-08T22:01:57.430Z,79.48
2023-04-08T22:03:59.111Z,79.76
2023-04-08T22:06:00.909Z,79.00
2023-04-08T22:08:02.574Z,78.65
2023-04-08T22:10:04.274Z,79.20
2023-04-08T22:12:06.072Z,79.30
2023-04-08T22:14:07.571Z,79.34
2023-04-08T22:16:11.018Z,79.10
2023-04-08T22:18:12.482Z,79.23
2023-04-08T22:20:13.982Z,79.46
2023-04-08T22:22:15.484Z,79.68
2023-04-08T22:24:20.581Z,79.87
2023-04-08T22:26:22.109Z,79.28
2023-04-08T22:28:23.666Z,79.33
2023-04-08T22:30:25.343Z,79.77
2023-04-08T22:32:26.856Z,79.69
2023-04-08T22:34:28.339Z,79.79
2023-04-08T22:36:29.897Z,79.81
2023-04-08T22:38:31.799Z,80.07
2023-04-08T22:40:36.037Z,79.81
2023-04-08T22:42:37.696Z,79.95
2023-04-08T22:44:39.204Z,79.32
2023-04-08T22:46:41.082Z,79.70
2023-04-08T22:48:42.577Z,79.41
2023-04-08T22:50:44.128Z,79.77
2023-04-08T22:52:46.377Z,79.42
2023-04-08T22:54:47.912Z,79.39
2023-04-08T22:56:49.396Z,80.19
2023-04-08T22:58:51.185Z,79.62
2023-04-08T23:00:52.876Z,80.28
2023-04-08T23:02:54.550Z,80.61
2023-04-08T23:04:56.277Z,80.37
2023-04-08T23:06:57.759Z,80.41
2023-04-08T23:08:59.474Z,80.67
2023-04-08T23:11:01.074Z,79.81
2023-04-08T23:13:02.586Z,80.00
2023-04-08T23:15:04.530Z,80.26
2023-04-08T23:17:06.253Z,80.09
2023-04-08T23:19:07.718Z,80.42
2023-04-08T23:21:09.244Z,80.38
2023-04-08T23:23:10.806Z,80.12
2023-04-08T23:25:12.339Z,80.27
2023-04-08T23:27:13.811Z,80.74
2023-04-08T23:29:15.655Z,80.39
2023-04-08T23:31:17.219Z,80.86
2023-04-08T23:33:18.750Z,80.75
2023-04-08T23:35:20.235Z,80.40
2023-04-08T23:37:21.720Z,80.44
2023-04-08T23:39:23.228Z,80.80
2023-04-08T23:41:24.723Z,81.05
2023-04-08T23:43:26.287Z,81.04
2023-04-08T23:45:27.756Z,80.43
2023-04-08T23:47:31.156Z,80.48
2023-04-08T23:49:32.748Z,79.31
2023-04-08T23:51:34.201Z,79.67
2023-04-08T23:53:35.876Z,80.07
2023-04-08T23:55:37.358Z,80.21
2023-04-08T23:57:42.635Z,80.52
2023-04-08T23:59:44.104Z,80.48
